createdAt,value
2023-02-08T00:01:29.312Z,-7.52
2023-02-08T00:03:58.950Z,-7.52
2023-02-08T00:06:26.979Z,-7.53
2023-02-08T00:08:57.163Z,-7.55
2023-02-08T00:11:25.602Z,-7.55
2023-02-08T00:13:54.117Z,-7.58
2023-02-08T00:16:22.445Z,-7.62
2023-02-08T00:18:50.459Z,-7.65
2023-02-08T00:21:19.483Z,-7.67
2023-02-08T00:23:49.516Z,-7.67
2023-02-08T00:26:18.174Z,-7.69
2023-02-08T00:28:46.543Z,-7.66
2023-02-08T00:31:14.762Z,-7.69
2023-02-08T00:33:43.187Z,-7.69
2023-02-08T00:36:11.818Z,-7.74
2023-02-08T00:38:40.646Z,-7.73
2023-02-08T00:41:11.632Z,-7.81
2023-02-08T00:43:40.103Z,-7.76
2023-02-08T00:46:10.973Z,-7.78
2023-02-08T00:48:39.135Z,-7.76
2023-02-08T00:51:13.854Z,-7.85
2023-02-08T00:53:44.428Z,-7.82
2023-02-08T00:56:18.680Z,-7.91
2023-02-08T00:58:50.059Z,-7.86
2023-02-08T01:01:18.763Z,-7.91
2023-02-08T01:03:48.242Z,-7.91
2023-02-08T01:06:18.419Z,-7.93
2023-02-08T01:08:47.688Z,-7.96
2023-02-08T01:11:30.942Z,-7.99
2023-02-08T01:13:59.937Z,-8.08
2023-02-08T01:16:32.737Z,-8.07
2023-02-08T01:19:02.735Z,-8.12
2023-02-08T01:21:35.165Z,-8.10
2023-02-08T01:24:05.334Z,-8.16
2023-02-08T01:26:33.712Z,-8.16
2023-02-08T01:29:02.302Z,-8.19
2023-02-08T01:31:37.408Z,-8.18
2023-02-08T01:34:09.419Z,-8.23
2023-02-08T01:36:39.711Z,-8.23
2023-02-08T01:39:08.631Z,-8.27
2023-02-08T01:41:39.935Z,-8.33
2023-02-08T01:44:14.128Z,-8.35
2023-02-08T01:46:45.946Z,-8.43
2023-02-08T01:49:20.125Z,-8.46
2023-02-08T01:51:59.958Z,-8.45
2023-02-08T01:54:31.583Z,-8.53
2023-02-08T01:57:00.537Z,-8.49
2023-02-08T01:59:45.571Z,-8.53
2023-02-08T02:02:17.381Z,-8.54
2023-02-08T02:04:45.775Z,-8.58
2023-02-08T02:07:14.273Z,-8.56
2023-02-08T02:09:50.562Z,-8.57
2023-02-08T02:12:18.768Z,-8.64
2023-02-08T02:14:47.350Z,-8.69
2023-02-08T02:17:18.281Z,-8.72
2023-02-08T02:19:57.695Z,-8.77
2023-02-08T02:22:31.600Z,-8.81
2023-02-08T02:25:18.806Z,-8.82
2023-02-08T02:28:26.097Z,-8.85
2023-02-08T02:31:20.815Z,-8.84
2023-02-08T02:34:03.843Z,-8.87
2023-02-08T02:36:52.575Z,-8.91
2023-02-08T02:39:52.164Z,-8.94
2023-02-08T02:42:41.635Z,-8.97
2023-02-08T02:45:09.911Z,-9.01
2023-02-08T02:47:49.832Z,-9.07
2023-02-08T02:50:27.816Z,-9.10
2023-02-08T02:53:03.300Z,-9.13
2023-02-08T02:55:35.754Z,-9.13
2023-02-08T02:58:06.206Z,-9.12
2023-02-08T03:00:35.467Z,-9.15
2023-02-08T03:03:04.731Z,-9.14
2023-02-08T03:05:35.934Z,-9.14
2023-02-08T03:08:49.286Z,-9.15
2023-02-08T03:11:35.368Z,-9.23
2023-02-08T03:14:35.611Z,-9.26
2023-02-08T03:17:18.485Z,-9.30
2023-02-08T03:19:57.253Z,-9.34
2023-02-08T03:22:46.561Z,-9.28
2023-02-08T03:25:21.880Z,-9.32
2023-02-08T03:28:11.647Z,-9.35
2023-02-08T03:30:46.283Z,-9.36
2023-02-08T03:33:21.056Z,-9.38
2023-02-08T03:35:52.453Z,-9.43
2023-02-08T03:38:25.630Z,-9.37
2023-02-08T03:40:55.453Z,-9.41
2023-02-08T03:43:34.335Z,-9.40
2023-02-08T03:46:20.567Z,-9.43
2023-02-08T03:48:54.619Z,-9.40
2023-02-08T03:51:25.617Z,-9.42
2023-02-08T03:53:55.074Z,-9.46
2023-02-08T03:56:36.306Z,-9.44
2023-02-08T03:59:08.226Z,-9.45
2023-02-08T04:01:46.377Z,-9.43
2023-02-08T04:04:16.183Z,-9.45
2023-02-08T04:06:44.486Z,-9.51
2023-02-08T04:09:12.599Z,-9.54
2023-02-08T04:11:44.671Z,-9.49
2023-02-08T04:14:13.291Z,-9.54
2023-02-08T04:16:41.488Z,-9.53
2023-02-08T04:19:10.409Z,-9.60
2023-02-08T04:21:39.186Z,-9.61
2023-02-08T04:24:09.488Z,-9.64
2023-02-08T04:26:37.651Z,-9.70
2023-02-08T04:33:24.327Z,-9.71
2023-02-08T04:35:52.883Z,-9.67
2023-02-08T04:38:20.802Z,-9.65
2023-02-08T04:40:48.824Z,-9.69
2023-02-08T04:43:17.155Z,-9.70
2023-02-08T04:45:45.463Z,-9.71
2023-02-08T04:48:13.769Z,-9.68
2023-02-08T04:50:43.434Z,-9.68
2023-02-08T04:53:11.682Z,-9.67
2023-02-08T04:55:40.284Z,-9.67
2023-02-08T04:58:09.440Z,-9.67
2023-02-08T05:00:37.665Z,-9.64
2023-02-08T05:03:07.223Z,-9.63
2023-02-08T05:05:35.959Z,-9.60
2023-02-08T05:08:04.372Z,-9.58
2023-02-08T05:10:32.804Z,-9.54
2023-02-08T05:13:01.534Z,-9.47
2023-02-08T05:15:30.007Z,-9.46
2023-02-08T05:17:57.933Z,-9.43
2023-02-08T05:20:25.840Z,-9.33
2023-02-08T05:22:54.133Z,-9.30
2023-02-08T05:25:22.075Z,-9.26
2023-02-08T05:27:50.224Z,-9.24
2023-02-08T05:30:18.348Z,-9.16
2023-02-08T05:32:47.243Z,-9.15
2023-02-08T05:35:15.557Z,-9.13
2023-02-08T05:37:43.652Z,-9.10
2023-02-08T05:40:13.513Z,-9.03
2023-02-08T05:42:42.735Z,-8.94
2023-02-08T05:45:10.725Z,-8.94
2023-02-08T05:47:39.255Z,-8.93
2023-02-08T05:50:07.826Z,-8.89
2023-02-08T05:52:36.224Z,-8.81
2023-02-08T05:55:04.602Z,-8.82
2023-02-08T05:57:35.874Z,-8.71
2023-02-08T06:00:07.395Z,-8.69
2023-02-08T06:02:35.517Z,-8.62
2023-02-08T06:05:04.075Z,-8.58
2023-02-08T06:07:32.559Z,-8.56
2023-02-08T06:10:00.786Z,-8.47
2023-02-08T06:12:30.881Z,-8.43
2023-02-08T06:15:02.424Z,-8.29
2023-02-08T06:17:31.342Z,-8.31
2023-02-08T06:19:59.485Z,-8.31
2023-02-08T06:22:29.870Z,-8.24
2023-02-08T06:24:57.993Z,-8.39
2023-02-08T06:27:26.687Z,-8.29
2023-02-08T06:29:55.267Z,-8.32
2023-02-08T06:32:23.323Z,-8.11
2023-02-08T06:34:51.725Z,-8.09
2023-02-08T06:37:19.962Z,-8.05
2023-02-08T06:39:48.275Z,-8.14
2023-02-08T06:42:16.555Z,-8.07
2023-02-08T06:44:54.444Z,-8.00
2023-02-08T06:47:25.443Z,-7.99
2023-02-08T06:49:55.810Z,-8.03
2023-02-08T06:52:23.633Z,-7.96
2023-02-08T06:54:52.170Z,-7.96
2023-02-08T06:57:20.510Z,-7.88
2023-02-08T06:59:49.350Z,-7.87
2023-02-08T07:02:20.724Z,-7.87
2023-02-08T07:04:49.232Z,-7.87
2023-02-08T07:07:18.173Z,-7.73
2023-02-08T07:09:46.508Z,-7.55
2023-02-08T07:12:14.603Z,-7.40
2023-02-08T07:14:43.937Z,-7.46
2023-02-08T07:17:14.896Z,-7.36
2023-02-08T07:19:43.119Z,-7.28
2023-02-08T07:22:11.613Z,-7.23
2023-02-08T07:24:41.600Z,-7.21
2023-02-08T07:27:15.175Z,-7.13
2023-02-08T07:29:45.455Z,-7.13
2023-02-08T07:32:14.092Z,-7.05
2023-02-08T07:34:42.700Z,-6.95
2023-02-08T07:37:11.055Z,-6.93
2023-02-08T07:39:40.339Z,-6.86
2023-02-08T07:42:11.581Z,-6.86
2023-02-08T07:44:40.259Z,-6.78
2023-02-08T07:47:09.642Z,-6.70
2023-02-08T07:49:38.098Z,-6.81
2023-02-08T08:04:38.279Z,-6.22
2023-02-08T08:07:07.851Z,-6.21
2023-02-08T08:09:38.584Z,-6.09
2023-02-08T08:12:09.970Z,-6.09
2023-02-08T08:14:39.624Z,-6.02
2023-02-08T08:17:08.714Z,-6.03
2023-02-08T08:19:37.572Z,-5.98
2023-02-08T08:22:09.102Z,-5.97
2023-02-08T08:24:38.277Z,-5.91
2023-02-08T08:27:09.148Z,-5.88
2023-02-08T08:29:39.978Z,-5.82
2023-02-08T08:32:10.300Z,-5.65
2023-02-08T08:34:42.306Z,-5.51
2023-02-08T08:37:11.372Z,-5.49
2023-02-08T08:39:39.705Z,-5.45
2023-02-08T08:42:07.946Z,-5.42
2023-02-08T08:44:38.437Z,-5.55
2023-02-08T08:47:06.762Z,-5.48
2023-02-08T08:49:34.651Z,-5.27
2023-02-08T08:52:02.648Z,-5.13
2023-02-08T08:54:30.763Z,-5.14
2023-02-08T08:56:59.026Z,-5.00
2023-02-08T08:59:27.937Z,-4.90
2023-02-08T09:01:57.195Z,-4.90
2023-02-08T09:04:56.690Z,-4.90
2023-02-08T09:07:16.129Z,-4.74
2023-02-08T09:09:48.423Z,-4.68
2023-02-08T09:12:19.217Z,-4.68
2023-02-08T09:14:47.403Z,-4.51
2023-02-08T09:17:15.535Z,-4.50
2023-02-08T09:19:44.221Z,-4.55
2023-02-08T09:22:13.635Z,-4.37
2023-02-08T09:24:42.524Z,-4.17
2023-02-08T09:27:14.558Z,-4.19
2023-02-08T09:29:42.843Z,-4.19
2023-02-08T09:32:11.292Z,-4.09
2023-02-08T09:34:39.887Z,-4.03
2023-02-08T09:37:08.453Z,-3.99
2023-02-08T09:39:37.143Z,-3.83
2023-02-08T09:42:29.358Z,-3.80
2023-02-08T09:45:10.320Z,-3.78
2023-02-08T09:47:44.463Z,-3.67
2023-02-08T09:50:21.920Z,-3.68
2023-02-08T09:53:13.848Z,-3.66
2023-02-08T09:55:52.090Z,-3.58
2023-02-08T09:58:35.615Z,-3.43
2023-02-08T10:01:08.011Z,-3.42
2023-02-08T10:03:43.476Z,-3.32
2023-02-08T10:06:17.859Z,-3.30
2023-02-08T10:08:52.343Z,-3.17
2023-02-08T10:11:35.892Z,-3.14
2023-02-08T10:14:11.765Z,-3.00
2023-02-08T10:16:53.677Z,-2.89
2023-02-08T10:19:38.150Z,-2.85
2023-02-08T10:22:25.141Z,-2.80
2023-02-08T10:25:12.378Z,-2.87
2023-02-08T10:28:08.669Z,-2.86
2023-02-08T10:30:50.909Z,-2.79
2023-02-08T10:33:43.331Z,-2.69
2023-02-08T10:36:24.601Z,-2.64
2023-02-08T10:38:55.883Z,-2.64
2023-02-08T10:41:28.990Z,-2.61
2023-02-08T10:44:05.429Z,-2.62
2023-02-08T10:47:05.652Z,-2.49
2023-02-08T10:50:02.934Z,-2.43
2023-02-08T10:52:33.684Z,-2.43
2023-02-08T10:55:08.260Z,-2.55
2023-02-08T10:57:36.677Z,-2.56
2023-02-08T11:00:08.134Z,-2.34
2023-02-08T11:02:43.001Z,-2.32
2023-02-08T11:05:13.000Z,-2.23
2023-02-08T11:07:42.148Z,-2.27
2023-02-08T11:10:21.642Z,-2.18
2023-02-08T11:13:06.205Z,-2.18
2023-02-08T11:15:57.660Z,-2.12
2023-02-08T11:18:31.411Z,-2.04
2023-02-08T11:21:02.876Z,-2.00
2023-02-08T11:23:33.193Z,-1.96
2023-02-08T11:26:25.247Z,-1.93
2023-02-08T11:29:15.986Z,-1.86
2023-02-08T11:31:58.864Z,-1.83
2023-02-08T11:34:39.812Z,-1.90
2023-02-08T11:37:26.936Z,-1.81
2023-02-08T11:39:59.279Z,-1.71
2023-02-08T11:42:37.502Z,-1.81
2023-02-08T11:45:06.660Z,-1.80
2023-02-08T11:47:37.781Z,-1.96
2023-02-08T11:50:08.281Z,-1.98
2023-02-08T11:52:43.718Z,-1.94
2023-02-08T11:55:32.996Z,-2.01
2023-02-08T11:58:13.519Z,-2.01
2023-02-08T12:01:02.220Z,-1.82
2023-02-08T12:03:51.128Z,-1.73
2023-02-08T12:06:40.759Z,-1.70
2023-02-08T12:09:54.549Z,-1.71
2023-02-08T12:12:48.538Z,-1.66
2023-02-08T12:15:58.754Z,-1.74
2023-02-08T12:18:45.056Z,-1.78
2023-02-08T12:21:26.369Z,-1.86
2023-02-08T12:24:05.925Z,-1.89
2023-02-08T12:26:44.118Z,-1.91
2023-02-08T12:29:12.689Z,-1.91
2023-02-08T12:31:40.754Z,-1.95
2023-02-08T12:34:25.163Z,-1.90
2023-02-08T12:37:26.862Z,-1.88
2023-02-08T12:40:50.860Z,-2.00
2023-02-08T12:43:33.218Z,-1.82
2023-02-08T12:46:04.571Z,-1.82
2023-02-08T12:49:11.565Z,-1.90
2023-02-08T12:51:56.969Z,-1.79
2023-02-08T12:54:38.739Z,-1.88
2023-02-08T12:57:07.736Z,-2.09
2023-02-08T12:59:54.934Z,-1.99
2023-02-08T13:02:30.664Z,-1.94
2023-02-08T13:05:01.810Z,-1.94
2023-02-08T13:07:41.135Z,-1.97
2023-02-08T13:10:31.606Z,-2.02
2023-02-08T13:13:08.998Z,-1.96
2023-02-08T13:15:46.313Z,-2.03
2023-02-08T13:18:21.782Z,-2.02
2023-02-08T13:21:03.500Z,-2.01
2023-02-08T13:23:57.810Z,-2.13
2023-02-08T13:26:32.408Z,-2.15
2023-02-08T13:29:05.097Z,-2.18
2023-02-08T13:31:49.230Z,-2.28
2023-02-08T13:34:37.238Z,-2.29
2023-02-08T13:37:24.820Z,-2.36
2023-02-08T13:40:04.505Z,-2.41
2023-02-08T13:42:45.565Z,-2.47
2023-02-08T13:45:26.131Z,-2.52
2023-02-08T13:48:20.818Z,-2.49
2023-02-08T13:50:53.891Z,-2.59
2023-02-08T13:53:39.990Z,-2.58
2023-02-08T13:56:13.176Z,-2.54
2023-02-08T13:58:50.872Z,-2.63
2023-02-08T14:01:28.270Z,-2.62
2023-02-08T14:04:15.809Z,-2.70
2023-02-08T14:06:47.378Z,-2.75
2023-02-08T14:09:38.218Z,-2.73
2023-02-08T14:12:14.689Z,-2.80
2023-02-08T14:14:42.623Z,-2.79
2023-02-08T14:17:20.887Z,-2.85
2023-02-08T14:19:58.571Z,-2.90
2023-02-08T14:22:36.185Z,-2.99
2023-02-08T14:25:18.268Z,-3.01
2023-02-08T14:28:03.503Z,-3.03
2023-02-08T14:30:39.308Z,-3.07
2023-02-08T14:33:13.069Z,-3.12
2023-02-08T14:35:44.053Z,-3.19
2023-02-08T14:38:24.298Z,-3.28
2023-02-08T14:41:00.646Z,-3.34
2023-02-08T14:43:49.790Z,-3.42
2023-02-08T14:46:39.508Z,-3.41
2023-02-08T14:49:14.655Z,-3.50
2023-02-08T14:52:04.843Z,-3.48
2023-02-08T14:54:49.175Z,-3.50
2023-02-08T14:57:24.494Z,-3.64
2023-02-08T14:59:57.244Z,-3.65
2023-02-08T15:02:31.820Z,-3.73
2023-02-08T15:05:09.971Z,-3.76
2023-02-08T15:08:07.640Z,-3.79
2023-02-08T15:10:42.490Z,-3.83
2023-02-08T15:13:31.080Z,-3.87
2023-02-08T15:16:00.656Z,-3.90
2023-02-08T15:18:31.936Z,-3.86
2023-02-08T15:21:06.968Z,-3.93
2023-02-08T15:23:36.281Z,-4.00
2023-02-08T15:26:22.545Z,-4.01
2023-02-08T15:28:52.083Z,-4.06
2023-02-08T15:31:32.393Z,-4.08
2023-02-08T15:34:02.001Z,-4.12
2023-02-08T15:36:33.241Z,-4.14
2023-02-08T15:39:27.291Z,-4.12
2023-02-08T15:41:59.971Z,-4.14
2023-02-08T15:44:30.832Z,-4.14
2023-02-08T15:47:05.016Z,-4.16
2023-02-08T15:49:38.574Z,-4.15
2023-02-08T15:52:07.969Z,-4.09
2023-02-08T15:54:35.927Z,-4.10
2023-02-08T15:57:10.256Z,-4.06
2023-02-08T15:59:40.481Z,-4.07
2023-02-08T16:02:31.507Z,-4.12
2023-02-08T16:05:01.110Z,-4.13
2023-02-08T16:07:39.056Z,-4.22
2023-02-08T16:10:10.874Z,-4.28
2023-02-08T16:12:39.372Z,-4.36
2023-02-08T16:15:53.691Z,-4.37
2023-02-08T16:18:41.033Z,-4.40
2023-02-08T16:21:20.319Z,-4.45
2023-02-08T16:24:16.324Z,-4.47
2023-02-08T16:26:50.112Z,-4.53
2023-02-08T16:29:22.032Z,-4.54
2023-02-08T16:32:01.362Z,-4.57
2023-02-08T16:34:36.619Z,-4.57
2023-02-08T16:37:07.672Z,-4.63
2023-02-08T16:39:36.610Z,-4.64
2023-02-08T16:42:16.307Z,-4.69
2023-02-08T16:45:15.182Z,-4.70
2023-02-08T16:47:49.816Z,-4.72
2023-02-08T16:50:28.339Z,-4.72
2023-02-08T17:04:03.359Z,-4.56
2023-02-08T17:06:36.706Z,-4.63
2023-02-08T17:09:06.566Z,-4.61
2023-02-08T17:11:35.401Z,-4.63
2023-02-08T17:14:05.488Z,-4.71
2023-02-08T17:16:35.602Z,-4.78
2023-02-08T17:19:04.849Z,-4.84
2023-02-08T17:21:33.429Z,-4.94
2023-02-08T17:24:02.432Z,-4.97
2023-02-08T17:26:40.745Z,-5.02
2023-02-08T17:29:09.294Z,-5.06
2023-02-08T17:31:45.294Z,-5.14
2023-02-08T17:34:14.105Z,-5.23
2023-02-08T17:36:43.050Z,-5.28
2023-02-08T17:39:12.421Z,-5.31
2023-02-08T17:41:40.854Z,-5.34
2023-02-08T17:44:09.108Z,-5.38
2023-02-08T17:46:38.150Z,-5.42
2023-02-08T17:49:06.386Z,-5.44
2023-02-08T17:51:36.130Z,-5.48
2023-02-08T17:54:05.578Z,-5.46
2023-02-08T17:56:36.345Z,-5.54
2023-02-08T17:59:05.869Z,-5.57
2023-02-08T18:01:35.449Z,-5.58
2023-02-08T18:04:03.880Z,-5.62
2023-02-08T18:06:32.601Z,-5.64
2023-02-08T18:09:01.759Z,-5.65
2023-02-08T18:11:31.633Z,-5.67
2023-02-08T18:14:00.321Z,-5.74
2023-02-08T18:16:31.195Z,-5.74
2023-02-08T18:19:01.569Z,-5.82
2023-02-08T18:21:34.097Z,-5.85
2023-02-08T18:24:04.673Z,-5.91
2023-02-08T18:26:34.832Z,-6.00
2023-02-08T18:29:04.119Z,-6.04
2023-02-08T18:31:33.166Z,-6.04
2023-02-08T18:34:02.159Z,-6.11
2023-02-08T18:36:31.063Z,-6.21
2023-02-08T18:39:00.178Z,-6.22
2023-02-08T18:41:30.378Z,-6.25
2023-02-08T18:43:59.477Z,-6.32
2023-02-08T18:46:30.950Z,-6.34
2023-02-08T18:49:01.021Z,-6.34
2023-02-08T18:51:31.509Z,-6.38
2023-02-08T18:54:00.425Z,-6.42
2023-02-08T18:56:29.697Z,-6.48
2023-02-08T18:59:01.107Z,-6.53
2023-02-08T19:01:29.919Z,-6.51
2023-02-08T19:04:00.127Z,-6.54
2023-02-08T19:06:31.898Z,-6.59
2023-02-08T19:09:02.045Z,-6.61
2023-02-08T19:11:34.588Z,-6.62
2023-02-08T19:14:05.400Z,-6.61
2023-02-08T19:16:36.386Z,-6.63
2023-02-08T19:19:06.289Z,-6.67
2023-02-08T19:21:35.051Z,-6.72
2023-02-08T19:24:28.429Z,-6.73
2023-02-08T19:26:57.152Z,-6.72
2023-02-08T19:29:25.136Z,-6.76
2023-02-08T19:31:53.358Z,-6.75
2023-02-08T19:34:24.311Z,-6.82
2023-02-08T19:36:54.652Z,-6.86
2023-02-08T19:39:25.391Z,-6.88
2023-02-08T19:41:55.314Z,-6.88
2023-02-08T19:44:23.754Z,-6.86
2023-02-08T19:46:54.081Z,-6.92
2023-02-08T19:49:23.515Z,-6.97
2023-02-08T19:51:53.273Z,-7.05
2023-02-08T19:54:25.032Z,-7.04
2023-02-08T19:56:55.128Z,-7.11
2023-02-08T19:59:26.430Z,-7.14
2023-02-08T20:01:57.340Z,-7.18
2023-02-08T20:04:25.981Z,-7.23
2023-02-08T20:06:55.611Z,-7.23
2023-02-08T20:09:24.506Z,-7.26
2023-02-08T20:11:57.474Z,-7.33
2023-02-08T20:14:33.409Z,-7.34
2023-02-08T20:17:02.482Z,-7.36
2023-02-08T20:19:31.814Z,-7.35
2023-02-08T20:21:59.995Z,-7.38
2023-02-08T20:24:32.075Z,-7.38
2023-02-08T20:27:00.449Z,-7.37
2023-02-08T20:29:30.921Z,-7.38
2023-02-08T20:31:59.872Z,-7.43
2023-02-08T20:34:29.031Z,-7.44
2023-02-08T20:37:12.660Z,-7.51
2023-02-08T20:39:43.810Z,-7.58
2023-02-08T20:42:12.671Z,-7.56
2023-02-08T20:44:44.288Z,-7.59
2023-02-08T20:47:19.542Z,-7.62
2023-02-08T20:49:51.161Z,-7.63
2023-02-08T20:52:19.204Z,-7.66
2023-02-08T20:54:48.282Z,-7.70
2023-02-08T20:57:18.687Z,-7.69
2023-02-08T20:59:51.138Z,-7.71
2023-02-08T21:02:23.293Z,-7.74
2023-02-08T21:04:54.619Z,-7.75
2023-02-08T21:07:22.758Z,-7.80
2023-02-08T21:09:51.219Z,-7.79
2023-02-08T21:12:21.164Z,-7.75
2023-02-08T21:14:50.139Z,-7.78
2023-02-08T21:17:18.836Z,-7.73
2023-02-08T21:19:48.005Z,-7.79
2023-02-08T21:22:17.448Z,-7.82
2023-02-08T21:24:45.675Z,-7.84
2023-02-08T21:27:13.862Z,-7.81
2023-02-08T21:29:42.534Z,-7.83
2023-02-08T21:32:10.967Z,-7.84
2023-02-08T21:34:40.683Z,-7.87
2023-02-08T21:37:09.321Z,-7.88
2023-02-08T21:39:38.559Z,-7.95
2023-02-08T21:42:06.675Z,-7.97
2023-02-08T21:44:36.178Z,-7.99
2023-02-08T21:47:04.278Z,-8.00
2023-02-08T21:49:50.952Z,-8.04
2023-02-08T21:52:37.822Z,-8.05
2023-02-08T21:55:06.750Z,-8.02
2023-02-08T21:57:40.359Z,-8.02
2023-02-08T22:00:10.784Z,-7.97
2023-02-08T22:02:39.832Z,-8.00
2023-02-08T22:05:08.745Z,-8.04
2023-02-08T22:07:48.608Z,-8.03
2023-02-08T22:10:20.250Z,-8.08
2023-02-08T22:12:49.457Z,-8.09
2023-02-08T22:15:23.091Z,-8.07
2023-02-08T22:18:00.022Z,-8.14
2023-02-08T22:21:02.094Z,-8.18
2023-02-08T22:23:31.048Z,-8.17
2023-02-08T22:25:59.615Z,-8.26
2023-02-08T22:31:15.755Z,-8.30
2023-02-08T22:33:45.185Z,-8.32
2023-02-08T22:36:14.112Z,-8.35
2023-02-08T22:38:43.216Z,-8.41
2023-02-08T22:41:16.143Z,-8.42
2023-02-08T22:43:44.941Z,-8.42
2023-02-08T22:46:13.922Z,-8.45
2023-02-08T22:48:42.928Z,-8.51
2023-02-08T22:51:17.385Z,-8.46
2023-02-08T22:53:45.660Z,-8.55
2023-02-08T22:56:15.346Z,-8.53
2023-02-08T22:58:44.019Z,-8.57
2023-02-08T23:01:14.795Z,-8.61
2023-02-08T23:03:43.908Z,-8.61
2023-02-08T23:06:16.619Z,-8.66
2023-02-08T23:08:45.478Z,-8.66
2023-02-08T23:11:14.874Z,-8.68
2023-02-08T23:13:42.772Z,-8.66
2023-02-08T23:16:15.984Z,-8.67
2023-02-08T23:18:45.507Z,-8.67
2023-02-08T23:21:17.889Z,-8.73
2023-02-08T23:23:48.421Z,-8.78
2023-02-08T23:26:19.298Z,-8.80
2023-02-08T23:28:47.634Z,-8.82
2023-02-08T23:31:16.135Z,-8.82
2023-02-08T23:33:44.458Z,-8.85
2023-02-08T23:36:17.968Z,-8.80
2023-02-08T23:38:46.594Z,-8.84
2023-02-08T23:41:18.810Z,-8.91
2023-02-08T23:43:47.335Z,-8.85
2023-02-08T23:46:21.639Z,-8.89
2023-02-08T23:48:50.644Z,-8.87
2023-02-08T23:51:21.222Z,-8.94
2023-02-08T23:53:51.274Z,-8.95
2023-02-08T23:56:23.145Z,-8.95
2023-02-08T23:58:54.721Z,-9.00
